sensor_id;sensor_type;location;lat;lon;timestamp;P1;durP1;ratioP1;P2;durP2;ratioP2
35578;SDS011;21687;48.900;9.188;2023-03-01T00:02:08;23.03;;;13.67;;
35578;SDS011;21687;48.900;9.188;2023-03-01T00:04:34;22.20;;;13.57;;
35578;SDS011;21687;48.900;9.188;2023-03-01T00:07:01;22.53;;;13.33;;
35578;SDS011;21687;48.900;9.188;2023-03-01T00:09:27;22.30;;;13.37;;
35578;SDS011;21687;48.900;9.188;2023-03-01T00:11:53;21.43;;;13.53;;
35578;SDS011;21687;48.900;9.188;2023-03-01T00:14:19;23.57;;;13.40;;
35578;SDS011;21687;48.900;9.188;2023-03-01T00:16:46;23.70;;;14.47;;
35578;SDS011;21687;48.900;9.188;2023-03-01T00:19:13;21.70;;;13.57;;
35578;SDS011;21687;48.900;9.188;2023-03-01T00:21:47;21.23;;;12.87;;
35578;SDS011;21687;48.900;9.188;2023-03-01T00:24:13;22.30;;;14.70;;
35578;SDS011;21687;48.900;9.188;2023-03-01T00:26:40;22.23;;;13.27;;
35578;SDS011;21687;48.900;9.188;2023-03-01T00:29:06;23.33;;;14.07;;
35578;SDS011;21687;48.900;9.188;2023-03-01T00:31:33;24.33;;;13.40;;
35578;SDS011;21687;48.900;9.188;2023-03-01T00:34:01;24.90;;;14.43;;
35578;SDS011;21687;48.900;9.188;2023-03-01T00:36:30;21.67;;;14.23;;
35578;SDS011;21687;48.900;9.188;2023-03-01T00:38:59;24.20;;;14.10;;
35578;SDS011;21687;48.900;9.188;2023-03-01T00:41:26;25.20;;;13.93;;
35578;SDS011;21687;48.900;9.188;2023-03-01T00:43:52;21.00;;;13.97;;
35578;SDS011;21687;48.900;9.188;2023-03-01T00:46:20;23.23;;;14.17;;
35578;SDS011;21687;48.900;9.188;2023-03-01T00:48:48;22.83;;;14.07;;
35578;SDS011;21687;48.900;9.188;2023-03-01T00:51:16;26.53;;;14.37;;
35578;SDS011;21687;48.900;9.188;2023-03-01T00:53:47;26.07;;;14.23;;
35578;SDS011;21687;48.900;9.188;2023-03-01T00:56:16;23.67;;;15.00;;
35578;SDS011;21687;48.900;9.188;2023-03-01T00:58:43;27.23;;;15.90;;
35578;SDS011;21687;48.900;9.188;2023-03-01T01:01:20;24.57;;;14.77;;
35578;SDS011;21687;48.900;9.188;2023-03-01T01:03:49;24.43;;;14.50;;
35578;SDS011;21687;48.900;9.188;2023-03-01T01:06:19;24.33;;;15.00;;
35578;SDS011;21687;48.900;9.188;2023-03-01T01:08:48;25.73;;;15.67;;
35578;SDS011;21687;48.900;9.188;2023-03-01T01:11:16;23.00;;;14.77;;
35578;SDS011;21687;48.900;9.188;2023-03-01T01:13:44;27.00;;;15.27;;
35578;SDS011;21687;48.900;9.188;2023-03-01T01:16:12;25.93;;;15.53;;
35578;SDS011;21687;48.900;9.188;2023-03-01T01:18:38;25.60;;;15.17;;
35578;SDS011;21687;48.900;9.188;2023-03-01T01:21:09;23.40;;;14.53;;
35578;SDS011;21687;48.900;9.188;2023-03-01T01:23:38;25.40;;;15.17;;
35578;SDS011;21687;48.900;9.188;2023-03-01T01:26:09;21.07;;;13.93;;
35578;SDS011;21687;48.900;9.188;2023-03-01T01:28:38;22.97;;;15.70;;
35578;SDS011;21687;48.900;9.188;2023-03-01T01:31:05;22.87;;;14.73;;
35578;SDS011;21687;48.900;9.188;2023-03-01T01:33:32;24.37;;;14.60;;
35578;SDS011;21687;48.900;9.188;2023-03-01T01:35:58;23.10;;;14.00;;
35578;SDS011;21687;48.900;9.188;2023-03-01T01:38:25;24.73;;;14.60;;
35578;SDS011;21687;48.900;9.188;2023-03-01T01:40:51;24.43;;;15.10;;
35578;SDS011;21687;48.900;9.188;2023-03-01T01:43:22;25.03;;;14.67;;
35578;SDS011;21687;48.900;9.188;2023-03-01T01:46:06;22.47;;;13.70;;
35578;SDS011;21687;48.900;9.188;2023-03-01T01:48:59;23.47;;;14.40;;
35578;SDS011;21687;48.900;9.188;2023-03-01T01:51:32;23.67;;;14.90;;
35578;SDS011;21687;48.900;9.188;2023-03-01T01:54:11;27.60;;;15.23;;
35578;SDS011;21687;48.900;9.188;2023-03-01T01:56:42;23.43;;;14.40;;
35578;SDS011;21687;48.900;9.188;2023-03-01T01:59:13;32.80;;;16.70;;
35578;SDS011;21687;48.900;9.188;2023-03-01T02:01:40;23.63;;;14.97;;
35578;SDS011;21687;48.900;9.188;2023-03-01T02:04:07;27.63;;;15.73;;
35578;SDS011;21687;48.900;9.188;2023-03-01T02:06:36;29.87;;;16.10;;
35578;SDS011;21687;48.900;9.188;2023-03-01T02:09:12;25.57;;;15.30;;
35578;SDS011;21687;48.900;9.188;2023-03-01T02:11:41;25.57;;;14.97;;
35578;SDS011;21687;48.900;9.188;2023-03-01T02:14:08;24.70;;;15.43;;
35578;SDS011;21687;48.900;9.188;2023-03-01T02:16:35;24.03;;;15.63;;
35578;SDS011;21687;48.900;9.188;2023-03-01T02:19:04;25.93;;;16.07;;
35578;SDS011;21687;48.900;9.188;2023-03-01T02:24:23;21.77;;;14.17;;
35578;SDS011;21687;48.900;9.188;2023-03-01T02:27:08;24.53;;;14.83;;
35578;SDS011;21687;48.900;9.188;2023-03-01T02:29:35;30.50;;;16.10;;
35578;SDS011;21687;48.900;9.188;2023-03-01T02:32:02;26.43;;;15.47;;
35578;SDS011;21687;48.900;9.188;2023-03-01T02:34:30;22.30;;;14.17;;
35578;SDS011;21687;48.900;9.188;2023-03-01T02:37:07;25.57;;;15.50;;
35578;SDS011;21687;48.900;9.188;2023-03-01T02:39:40;25.47;;;14.87;;
35578;SDS011;21687;48.900;9.188;2023-03-01T02:42:12;27.03;;;15.30;;
35578;SDS011;21687;48.900;9.188;2023-03-01T02:44:45;25.07;;;15.10;;
35578;SDS011;21687;48.900;9.188;2023-03-01T02:47:13;27.37;;;15.67;;
35578;SDS011;21687;48.900;9.188;2023-03-01T02:49:40;24.40;;;15.17;;
35578;SDS011;21687;48.900;9.188;2023-03-01T02:52:23;24.60;;;15.33;;
35578;SDS011;21687;48.900;9.188;2023-03-01T02:57:29;23.13;;;14.60;;
35578;SDS011;21687;48.900;9.188;2023-03-01T02:59:59;23.50;;;14.73;;
35578;SDS011;21687;48.900;9.188;2023-03-01T03:02:44;26.47;;;16.13;;
35578;SDS011;21687;48.900;9.188;2023-03-01T03:05:12;23.23;;;14.17;;
35578;SDS011;21687;48.900;9.188;2023-03-01T03:07:41;23.47;;;14.23;;
35578;SDS011;21687;48.900;9.188;2023-03-01T03:10:11;23.90;;;14.67;;
35578;SDS011;21687;48.900;9.188;2023-03-01T03:12:40;24.57;;;14.80;;
35578;SDS011;21687;48.900;9.188;2023-03-01T03:15:07;25.73;;;14.90;;
35578;SDS011;21687;48.900;9.188;2023-03-01T03:17:38;26.63;;;14.83;;
35578;SDS011;21687;48.900;9.188;2023-03-01T03:20:08;27.10;;;16.10;;
35578;SDS011;21687;48.900;9.188;2023-03-01T03:22:40;23.97;;;14.90;;
35578;SDS011;21687;48.900;9.188;2023-03-01T03:25:06;25.60;;;15.00;;
35578;SDS011;21687;48.900;9.188;2023-03-01T03:27:36;23.57;;;14.33;;
35578;SDS011;21687;48.900;9.188;2023-03-01T03:30:07;26.30;;;15.30;;
35578;SDS011;21687;48.900;9.188;2023-03-01T03:32:38;23.53;;;14.07;;
35578;SDS011;21687;48.900;9.188;2023-03-01T03:35:05;22.57;;;14.53;;
35578;SDS011;21687;48.900;9.188;2023-03-01T03:37:40;21.17;;;13.73;;
35578;SDS011;21687;48.900;9.188;2023-03-01T03:40:26;22.73;;;14.77;;
35578;SDS011;21687;48.900;9.188;2023-03-01T03:42:54;23.40;;;14.83;;
35578;SDS011;21687;48.900;9.188;2023-03-01T03:45:20;24.07;;;15.60;;
35578;SDS011;21687;48.900;9.188;2023-03-01T03:47:47;23.37;;;14.17;;
35578;SDS011;21687;48.900;9.188;2023-03-01T03:50:14;24.43;;;14.80;;
35578;SDS011;21687;48.900;9.188;2023-03-01T03:52:41;23.77;;;15.50;;
35578;SDS011;21687;48.900;9.188;2023-03-01T03:55:08;21.67;;;14.43;;
35578;SDS011;21687;48.900;9.188;2023-03-01T03:57:36;22.07;;;14.73;;
35578;SDS011;21687;48.900;9.188;2023-03-01T04:00:04;22.83;;;14.37;;
35578;SDS011;21687;48.900;9.188;2023-03-01T04:02:43;22.23;;;14.30;;
35578;SDS011;21687;48.900;9.188;2023-03-01T04:05:10;26.20;;;15.37;;
35578;SDS011;21687;48.900;9.188;2023-03-01T04:07:39;25.20;;;14.93;;
35578;SDS011;21687;48.900;9.188;2023-03-01T04:10:07;25.23;;;15.00;;
35578;SDS011;21687;48.900;9.188;2023-03-01T04:12:35;23.93;;;14.37;;
35578;SDS011;21687;48.900;9.188;2023-03-01T04:15:02;26.20;;;15.20;;
35578;SDS011;21687;48.900;9.188;2023-03-01T04:17:41;23.70;;;14.87;;
35578;SDS011;21687;48.900;9.188;2023-03-01T04:20:13;22.97;;;13.53;;
35578;SDS011;21687;48.900;9.188;2023-03-01T04:23:00;23.30;;;14.40;;
35578;SDS011;21687;48.900;9.188;2023-03-01T04:25:53;23.17;;;14.33;;
35578;SDS011;21687;48.900;9.188;2023-03-01T04:28:22;24.40;;;15.47;;
35578;SDS011;21687;48.900;9.188;2023-03-01T04:30:51;24.93;;;14.37;;
35578;SDS011;21687;48.900;9.188;2023-03-01T04:33:18;26.67;;;15.00;;
35578;SDS011;21687;48.900;9.188;2023-03-01T04:35:45;24.97;;;15.93;;
35578;SDS011;21687;48.900;9.188;2023-03-01T04:38:14;28.53;;;14.57;;
35578;SDS011;21687;48.900;9.188;2023-03-01T04:40:42;23.40;;;14.57;;
35578;SDS011;21687;48.900;9.188;2023-03-01T04:43:08;24.13;;;14.83;;
35578;SDS011;21687;48.900;9.188;2023-03-01T04:45:35;21.97;;;14.50;;
35578;SDS011;21687;48.900;9.188;2023-03-01T04:48:02;24.80;;;14.60;;
35578;SDS011;21687;48.900;9.188;2023-03-01T04:50:29;25.13;;;15.00;;
35578;SDS011;21687;48.900;9.188;2023-03-01T04:52:55;23.57;;;15.37;;
35578;SDS011;21687;48.900;9.188;2023-03-01T04:55:28;25.37;;;14.60;;
35578;SDS011;21687;48.900;9.188;2023-03-01T04:57:54;26.40;;;15.37;;
35578;SDS011;21687;48.900;9.188;2023-03-01T05:00:21;25.17;;;14.17;;
35578;SDS011;21687;48.900;9.188;2023-03-01T05:02:52;22.37;;;14.07;;
35578;SDS011;21687;48.900;9.188;2023-03-01T05:07:57;24.53;;;14.93;;
35578;SDS011;21687;48.900;9.188;2023-03-01T05:10:27;26.00;;;15.90;;
35578;SDS011;21687;48.900;9.188;2023-03-01T05:12:56;22.13;;;13.80;;
35578;SDS011;21687;48.900;9.188;2023-03-01T05:15:24;23.00;;;14.53;;
35578;SDS011;21687;48.900;9.188;2023-03-01T05:17:52;24.70;;;16.00;;
35578;SDS011;21687;48.900;9.188;2023-03-01T05:20:20;23.73;;;15.00;;
35578;SDS011;21687;48.900;9.188;2023-03-01T05:22:50;23.60;;;15.20;;
35578;SDS011;21687;48.900;9.188;2023-03-01T05:25:17;23.10;;;15.00;;
35578;SDS011;21687;48.900;9.188;2023-03-01T05:27:43;23.63;;;14.73;;
35578;SDS011;21687;48.900;9.188;2023-03-01T05:30:10;27.17;;;15.60;;
35578;SDS011;21687;48.900;9.188;2023-03-01T05:32:43;25.70;;;15.00;;
35578;SDS011;21687;48.900;9.188;2023-03-01T05:35:12;26.83;;;16.30;;
35578;SDS011;21687;48.900;9.188;2023-03-01T05:37:43;26.40;;;15.20;;
35578;SDS011;21687;48.900;9.188;2023-03-01T05:40:12;24.10;;;14.80;;
35578;SDS011;21687;48.900;9.188;2023-03-01T05:42:41;24.33;;;14.50;;
35578;SDS011;21687;48.900;9.188;2023-03-01T05:45:10;25.37;;;15.63;;
35578;SDS011;21687;48.900;9.188;2023-03-01T05:47:38;24.80;;;15.67;;
35578;SDS011;21687;48.900;9.188;2023-03-01T05:50:09;24.50;;;15.57;;
35578;SDS011;21687;48.900;9.188;2023-03-01T05:52:37;24.10;;;14.40;;
35578;SDS011;21687;48.900;9.188;2023-03-01T05:55:04;25.73;;;14.23;;
35578;SDS011;21687;48.900;9.188;2023-03-01T05:57:31;26.33;;;15.83;;
35578;SDS011;21687;48.900;9.188;2023-03-01T05:59:57;24.67;;;15.13;;
35578;SDS011;21687;48.900;9.188;2023-03-01T06:02:23;22.53;;;14.37;;
35578;SDS011;21687;48.900;9.188;2023-03-01T06:04:50;21.43;;;14.53;;
35578;SDS011;21687;48.900;9.188;2023-03-01T06:07:16;26.30;;;16.07;;
35578;SDS011;21687;48.900;9.188;2023-03-01T06:09:42;24.13;;;15.30;;
35578;SDS011;21687;48.900;9.188;2023-03-01T06:12:09;25.67;;;15.53;;
35578;SDS011;21687;48.900;9.188;2023-03-01T06:14:36;24.73;;;14.87;;
35578;SDS011;21687;48.900;9.188;2023-03-01T06:17:03;25.57;;;16.13;;
35578;SDS011;21687;48.900;9.188;2023-03-01T06:19:29;27.43;;;16.20;;
35578;SDS011;21687;48.900;9.188;2023-03-01T06:21:55;25.63;;;15.50;;
35578;SDS011;21687;48.900;9.188;2023-03-01T06:24:21;25.00;;;15.37;;
35578;SDS011;21687;48.900;9.188;2023-03-01T06:26:48;23.70;;;15.33;;
35578;SDS011;21687;48.900;9.188;2023-03-01T06:29:14;29.13;;;16.90;;
35578;SDS011;21687;48.900;9.188;2023-03-01T06:31:40;25.03;;;15.77;;
35578;SDS011;21687;48.900;9.188;2023-03-01T06:34:07;28.30;;;15.73;;
35578;SDS011;21687;48.900;9.188;2023-03-01T06:36:33;28.40;;;15.70;;
35578;SDS011;21687;48.900;9.188;2023-03-01T06:38:59;23.90;;;15.10;;
35578;SDS011;21687;48.900;9.188;2023-03-01T06:41:25;27.90;;;16.67;;
35578;SDS011;21687;48.900;9.188;2023-03-01T06:43:52;25.43;;;16.07;;
35578;SDS011;21687;48.900;9.188;2023-03-01T06:46:19;29.33;;;16.27;;
35578;SDS011;21687;48.900;9.188;2023-03-01T06:48:46;30.70;;;16.57;;
35578;SDS011;21687;48.900;9.188;2023-03-01T06:51:12;26.00;;;16.17;;
35578;SDS011;21687;48.900;9.188;2023-03-01T06:53:39;24.87;;;16.73;;
35578;SDS011;21687;48.900;9.188;2023-03-01T06:56:05;27.50;;;16.43;;
35578;SDS011;21687;48.900;9.188;2023-03-01T06:58:32;28.17;;;16.53;;
35578;SDS011;21687;48.900;9.188;2023-03-01T07:00:58;29.20;;;16.43;;
35578;SDS011;21687;48.900;9.188;2023-03-01T07:03:25;29.30;;;17.17;;
35578;SDS011;21687;48.900;9.188;2023-03-01T07:05:51;29.07;;;17.53;;
35578;SDS011;21687;48.900;9.188;2023-03-01T07:08:17;31.57;;;17.57;;
35578;SDS011;21687;48.900;9.188;2023-03-01T07:10:44;28.93;;;16.63;;
35578;SDS011;21687;48.900;9.188;2023-03-01T07:13:10;28.87;;;16.77;;
35578;SDS011;21687;48.900;9.188;2023-03-01T07:15:36;33.27;;;18.07;;
35578;SDS011;21687;48.900;9.188;2023-03-01T07:18:05;29.20;;;17.57;;
35578;SDS011;21687;48.900;9.188;2023-03-01T07:20:31;26.03;;;16.37;;
35578;SDS011;21687;48.900;9.188;2023-03-01T07:22:57;30.07;;;17.60;;
35578;SDS011;21687;48.900;9.188;2023-03-01T07:25:24;36.33;;;17.73;;
35578;SDS011;21687;48.900;9.188;2023-03-01T07:27:51;31.30;;;17.87;;
35578;SDS011;21687;48.900;9.188;2023-03-01T07:30:18;32.20;;;16.50;;
35578;SDS011;21687;48.900;9.188;2023-03-01T07:32:45;35.63;;;18.53;;
35578;SDS011;21687;48.900;9.188;2023-03-01T07:35:11;29.47;;;17.43;;
35578;SDS011;21687;48.900;9.188;2023-03-01T07:37:40;28.97;;;17.60;;
35578;SDS011;21687;48.900;9.188;2023-03-01T07:40:06;31.57;;;18.30;;
35578;SDS011;21687;48.900;9.188;2023-03-01T07:42:33;32.13;;;17.43;;
35578;SDS011;21687;48.900;9.188;2023-03-01T07:44:59;29.13;;;17.10;;
35578;SDS011;21687;48.900;9.188;2023-03-01T07:47:26;32.90;;;17.90;;
35578;SDS011;21687;48.900;9.188;2023-03-01T07:49:52;29.00;;;17.00;;
35578;SDS011;21687;48.900;9.188;2023-03-01T07:52:18;29.17;;;16.17;;
35578;SDS011;21687;48.900;9.188;2023-03-01T07:54:45;30.77;;;16.80;;
35578;SDS011;21687;48.900;9.188;2023-03-01T07:57:11;30.97;;;17.10;;
35578;SDS011;21687;48.900;9.188;2023-03-01T07:59:37;29.77;;;16.47;;
35578;SDS011;21687;48.900;9.188;2023-03-01T08:02:03;27.87;;;17.03;;
35578;SDS011;21687;48.900;9.188;2023-03-01T08:04:30;29.93;;;16.93;;
35578;SDS011;21687;48.900;9.188;2023-03-01T08:06:57;29.40;;;16.70;;
35578;SDS011;21687;48.900;9.188;2023-03-01T08:09:24;25.03;;;15.63;;
35578;SDS011;21687;48.900;9.188;2023-03-01T08:11:50;28.67;;;17.30;;
35578;SDS011;21687;48.900;9.188;2023-03-01T08:14:16;26.27;;;16.20;;
35578;SDS011;21687;48.900;9.188;2023-03-01T08:16:43;26.80;;;16.27;;
35578;SDS011;21687;48.900;9.188;2023-03-01T08:19:11;25.97;;;16.50;;
35578;SDS011;21687;48.900;9.188;2023-03-01T08:21:37;31.40;;;17.20;;
35578;SDS011;21687;48.900;9.188;2023-03-01T08:24:04;29.60;;;16.13;;
35578;SDS011;21687;48.900;9.188;2023-03-01T08:26:32;28.23;;;15.73;;
35578;SDS011;21687;48.900;9.188;2023-03-01T08:28:59;30.77;;;16.47;;
35578;SDS011;21687;48.900;9.188;2023-03-01T08:31:26;27.57;;;16.57;;
35578;SDS011;21687;48.900;9.188;2023-03-01T08:33:59;27.50;;;16.07;;
35578;SDS011;21687;48.900;9.188;2023-03-01T08:36:27;27.93;;;16.43;;
35578;SDS011;21687;48.900;9.188;2023-03-01T08:38:56;27.50;;;16.63;;
35578;SDS011;21687;48.900;9.188;2023-03-01T08:41:23;29.13;;;16.30;;
35578;SDS011;21687;48.900;9.188;2023-03-01T08:43:50;27.73;;;16.90;;
35578;SDS011;21687;48.900;9.188;2023-03-01T08:46:17;29.73;;;16.73;;
35578;SDS011;21687;48.900;9.188;2023-03-01T08:48:44;33.87;;;16.30;;
35578;SDS011;21687;48.900;9.188;2023-03-01T08:51:11;29.30;;;16.50;;
35578;SDS011;21687;48.900;9.188;2023-03-01T08:53:39;28.20;;;16.80;;
35578;SDS011;21687;48.900;9.188;2023-03-01T08:56:06;28.37;;;17.30;;
35578;SDS011;21687;48.900;9.188;2023-03-01T08:58:33;26.73;;;16.20;;
35578;SDS011;21687;48.900;9.188;2023-03-01T09:01:00;27.73;;;15.57;;
35578;SDS011;21687;48.900;9.188;2023-03-01T09:03:31;30.60;;;16.90;;
35578;SDS011;21687;48.900;9.188;2023-03-01T09:06:01;25.13;;;15.73;;
35578;SDS011;21687;48.900;9.188;2023-03-01T09:08:29;27.60;;;16.13;;
35578;SDS011;21687;48.900;9.188;2023-03-01T09:11:00;28.73;;;16.03;;
35578;SDS011;21687;48.900;9.188;2023-03-01T09:13:28;29.37;;;17.27;;
35578;SDS011;21687;48.900;9.188;2023-03-01T09:15:56;29.23;;;16.60;;
35578;SDS011;21687;48.900;9.188;2023-03-01T09:18:23;26.70;;;16.27;;
35578;SDS011;21687;48.900;9.188;2023-03-01T09:20:49;29.20;;;17.50;;
35578;SDS011;21687;48.900;9.188;2023-03-01T09:23:16;28.33;;;17.30;;
35578;SDS011;21687;48.900;9.188;2023-03-01T09:25:42;26.67;;;16.20;;
35578;SDS011;21687;48.900;9.188;2023-03-01T09:28:08;25.97;;;15.17;;
35578;SDS011;21687;48.900;9.188;2023-03-01T09:30:35;28.20;;;16.90;;
35578;SDS011;21687;48.900;9.188;2023-03-01T09:33:02;28.80;;;16.13;;
35578;SDS011;21687;48.900;9.188;2023-03-01T09:35:28;27.97;;;15.97;;
35578;SDS011;21687;48.900;9.188;2023-03-01T09:38:04;29.63;;;17.03;;
35578;SDS011;21687;48.900;9.188;2023-03-01T09:41:02;27.80;;;16.87;;
35578;SDS011;21687;48.900;9.188;2023-03-01T09:43:39;29.30;;;15.63;;
35578;SDS011;21687;48.900;9.188;2023-03-01T09:46:12;27.10;;;16.00;;
35578;SDS011;21687;48.900;9.188;2023-03-01T09:48:44;23.77;;;14.10;;
35578;SDS011;21687;48.900;9.188;2023-03-01T09:51:34;29.70;;;15.90;;
35578;SDS011;21687;48.900;9.188;2023-03-01T09:54:05;28.47;;;16.47;;
35578;SDS011;21687;48.900;9.188;2023-03-01T09:56:44;27.07;;;15.33;;
35578;SDS011;21687;48.900;9.188;2023-03-01T09:59:25;26.27;;;16.17;;
35578;SDS011;21687;48.900;9.188;2023-03-01T10:02:18;27.17;;;16.63;;
35578;SDS011;21687;48.900;9.188;2023-03-01T10:08:14;25.20;;;16.13;;
35578;SDS011;21687;48.900;9.188;2023-03-01T10:10:52;28.23;;;15.67;;
35578;SDS011;21687;48.900;9.188;2023-03-01T10:13:21;26.37;;;15.83;;
35578;SDS011;21687;48.900;9.188;2023-03-01T10:15:50;24.83;;;15.70;;
35578;SDS011;21687;48.900;9.188;2023-03-01T10:18:37;26.63;;;16.00;;
35578;SDS011;21687;48.900;9.188;2023-03-01T10:21:12;24.67;;;15.07;;
35578;SDS011;21687;48.900;9.188;2023-03-01T10:23:42;25.10;;;15.30;;
35578;SDS011;21687;48.900;9.188;2023-03-01T10:31:39;25.50;;;15.63;;
35578;SDS011;21687;48.900;9.188;2023-03-01T10:34:22;26.13;;;15.80;;
35578;SDS011;21687;48.900;9.188;2023-03-01T10:36:56;24.07;;;15.27;;
35578;SDS011;21687;48.900;9.188;2023-03-01T10:40:26;23.90;;;14.60;;
35578;SDS011;21687;48.900;9.188;2023-03-01T10:42:57;23.93;;;15.10;;
35578;SDS011;21687;48.900;9.188;2023-03-01T10:50:36;26.80;;;15.63;;
35578;SDS011;21687;48.900;9.188;2023-03-01T10:53:04;23.43;;;15.33;;
35578;SDS011;21687;48.900;9.188;2023-03-01T10:55:44;22.97;;;15.07;;
35578;SDS011;21687;48.900;9.188;2023-03-01T11:03:27;21.50;;;14.60;;
35578;SDS011;21687;48.900;9.188;2023-03-01T11:05:58;22.33;;;14.43;;
35578;SDS011;21687;48.900;9.188;2023-03-01T11:08:34;22.83;;;15.67;;
35578;SDS011;21687;48.900;9.188;2023-03-01T11:11:04;25.07;;;15.70;;
35578;SDS011;21687;48.900;9.188;2023-03-01T11:16:45;23.77;;;14.93;;
35578;SDS011;21687;48.900;9.188;2023-03-01T11:19:22;22.97;;;15.17;;
35578;SDS011;21687;48.900;9.188;2023-03-01T11:21:54;29.13;;;15.37;;
35578;SDS011;21687;48.900;9.188;2023-03-01T11:24:34;26.07;;;15.27;;
35578;SDS011;21687;48.900;9.188;2023-03-01T11:27:26;20.60;;;14.33;;
35578;SDS011;21687;48.900;9.188;2023-03-01T11:32:38;21.33;;;14.63;;
35578;SDS011;21687;48.900;9.188;2023-03-01T11:35:15;23.27;;;14.07;;
35578;SDS011;21687;48.900;9.188;2023-03-01T11:43:02;20.33;;;13.53;;
35578;SDS011;21687;48.900;9.188;2023-03-01T11:48:37;21.43;;;12.67;;
35578;SDS011;21687;48.900;9.188;2023-03-01T11:51:09;20.93;;;14.03;;
35578;SDS011;21687;48.900;9.188;2023-03-01T12:09:27;22.23;;;13.53;;
35578;SDS011;21687;48.900;9.188;2023-03-01T12:12:09;22.57;;;14.10;;
35578;SDS011;21687;48.900;9.188;2023-03-01T12:20:45;22.13;;;13.37;;
35578;SDS011;21687;48.900;9.188;2023-03-01T12:26:32;20.30;;;13.73;;
35578;SDS011;21687;48.900;9.188;2023-03-01T12:37:40;18.10;;;13.00;;
35578;SDS011;21687;48.900;9.188;2023-03-01T12:43:26;23.30;;;14.27;;
35578;SDS011;21687;48.900;9.188;2023-03-01T12:46:10;25.87;;;13.17;;
35578;SDS011;21687;48.900;9.188;2023-03-01T12:49:08;20.57;;;12.60;;
35578;SDS011;21687;48.900;9.188;2023-03-01T12:51:42;19.53;;;13.07;;
35578;SDS011;21687;48.900;9.188;2023-03-01T12:54:31;18.57;;;12.97;;
35578;SDS011;21687;48.900;9.188;2023-03-01T12:57:03;19.23;;;12.93;;
35578;SDS011;21687;48.900;9.188;2023-03-01T12:59:48;20.93;;;13.43;;
35578;SDS011;21687;48.900;9.188;2023-03-01T13:02:58;21.30;;;13.57;;
35578;SDS011;21687;48.900;9.188;2023-03-01T13:08:42;20.03;;;12.57;;
35578;SDS011;21687;48.900;9.188;2023-03-01T13:11:23;22.37;;;13.30;;
35578;SDS011;21687;48.900;9.188;2023-03-01T13:13:49;20.77;;;12.23;;
35578;SDS011;21687;48.900;9.188;2023-03-01T13:19:05;20.23;;;12.60;;
35578;SDS011;21687;48.900;9.188;2023-03-01T13:21:38;20.10;;;13.60;;
35578;SDS011;21687;48.900;9.188;2023-03-01T13:24:22;22.23;;;13.40;;
35578;SDS011;21687;48.900;9.188;2023-03-01T13:30:12;20.30;;;13.13;;
35578;SDS011;21687;48.900;9.188;2023-03-01T13:34:02;20.00;;;13.07;;
35578;SDS011;21687;48.900;9.188;2023-03-01T13:35:59;19.90;;;13.60;;
35578;SDS011;21687;48.900;9.188;2023-03-01T13:38:36;20.87;;;13.13;;
35578;SDS011;21687;48.900;9.188;2023-03-01T13:49:25;20.33;;;13.07;;
35578;SDS011;21687;48.900;9.188;2023-03-01T13:51:54;19.50;;;13.10;;
35578;SDS011;21687;48.900;9.188;2023-03-01T13:54:29;21.07;;;14.07;;
35578;SDS011;21687;48.900;9.188;2023-03-01T13:56:58;17.70;;;12.97;;
35578;SDS011;21687;48.900;9.188;2023-03-01T13:59:25;20.47;;;13.07;;
35578;SDS011;21687;48.900;9.188;2023-03-01T14:01:58;21.93;;;13.97;;
35578;SDS011;21687;48.900;9.188;2023-03-01T14:04:26;23.10;;;14.40;;
35578;SDS011;21687;48.900;9.188;2023-03-01T14:09:59;21.03;;;14.00;;
35578;SDS011;21687;48.900;9.188;2023-03-01T14:13:10;21.53;;;13.37;;
35578;SDS011;21687;48.900;9.188;2023-03-01T14:15:28;24.20;;;13.90;;
35578;SDS011;21687;48.900;9.188;2023-03-01T14:18:21;24.17;;;13.97;;
35578;SDS011;21687;48.900;9.188;2023-03-01T14:20:58;20.67;;;13.13;;
35578;SDS011;21687;48.900;9.188;2023-03-01T14:23:24;24.43;;;13.67;;
35578;SDS011;21687;48.900;9.188;2023-03-01T14:25:56;21.93;;;13.70;;
35578;SDS011;21687;48.900;9.188;2023-03-01T14:28:24;18.97;;;12.83;;
35578;SDS011;21687;48.900;9.188;2023-03-01T14:30:53;20.97;;;13.07;;
35578;SDS011;21687;48.900;9.188;2023-03-01T14:33:28;25.50;;;14.10;;
35578;SDS011;21687;48.900;9.188;2023-03-01T14:36:02;17.73;;;11.93;;
35578;SDS011;21687;48.900;9.188;2023-03-01T14:38:52;22.70;;;14.03;;
35578;SDS011;21687;48.900;9.188;2023-03-01T14:41:21;25.90;;;14.97;;
35578;SDS011;21687;48.900;9.188;2023-03-01T14:43:57;20.43;;;13.53;;
35578;SDS011;21687;48.900;9.188;2023-03-01T14:46:34;20.80;;;13.43;;
35578;SDS011;21687;48.900;9.188;2023-03-01T14:49:09;20.47;;;13.43;;
35578;SDS011;21687;48.900;9.188;2023-03-01T14:51:40;20.23;;;12.97;;
35578;SDS011;21687;48.900;9.188;2023-03-01T14:57:20;21.10;;;13.87;;
35578;SDS011;21687;48.900;9.188;2023-03-01T14:59:49;20.00;;;13.27;;
35578;SDS011;21687;48.900;9.188;2023-03-01T15:02:20;23.73;;;13.77;;
35578;SDS011;21687;48.900;9.188;2023-03-01T15:04:49;23.97;;;14.17;;
35578;SDS011;21687;48.900;9.188;2023-03-01T15:07:17;22.90;;;13.37;;
35578;SDS011;21687;48.900;9.188;2023-03-01T15:09:44;23.13;;;13.37;;
35578;SDS011;21687;48.900;9.188;2023-03-01T15:14:54;20.50;;;12.90;;
35578;SDS011;21687;48.900;9.188;2023-03-01T15:17:26;23.67;;;14.33;;
35578;SDS011;21687;48.900;9.188;2023-03-01T15:19:58;27.40;;;14.13;;
35578;SDS011;21687;48.900;9.188;2023-03-01T15:22:26;25.87;;;14.73;;
35578;SDS011;21687;48.900;9.188;2023-03-01T15:24:53;24.00;;;14.00;;
35578;SDS011;21687;48.900;9.188;2023-03-01T15:27:21;19.63;;;12.80;;
35578;SDS011;21687;48.900;9.188;2023-03-01T15:29:50;20.43;;;13.70;;
35578;SDS011;21687;48.900;9.188;2023-03-01T15:32:27;19.77;;;13.20;;
35578;SDS011;21687;48.900;9.188;2023-03-01T15:34:57;21.03;;;13.40;;
35578;SDS011;21687;48.900;9.188;2023-03-01T15:39:59;21.80;;;13.63;;
35578;SDS011;21687;48.900;9.188;2023-03-01T15:47:56;22.80;;;13.10;;
35578;SDS011;21687;48.900;9.188;2023-03-01T15:50:31;20.13;;;13.20;;
35578;SDS011;21687;48.900;9.188;2023-03-01T15:53:00;21.07;;;12.87;;
35578;SDS011;21687;48.900;9.188;2023-03-01T15:55:31;20.13;;;13.43;;
35578;SDS011;21687;48.900;9.188;2023-03-01T15:58:03;20.97;;;13.03;;
35578;SDS011;21687;48.900;9.188;2023-03-01T16:00:59;25.77;;;13.57;;
35578;SDS011;21687;48.900;9.188;2023-03-01T16:03:25;21.53;;;12.83;;
35578;SDS011;21687;48.900;9.188;2023-03-01T16:05:53;20.10;;;12.63;;
35578;SDS011;21687;48.900;9.188;2023-03-01T16:08:19;22.67;;;12.80;;
35578;SDS011;21687;48.900;9.188;2023-03-01T16:10:45;20.73;;;13.17;;
35578;SDS011;21687;48.900;9.188;2023-03-01T16:13:14;23.37;;;14.17;;
35578;SDS011;21687;48.900;9.188;2023-03-01T16:15:42;23.87;;;13.87;;
35578;SDS011;21687;48.900;9.188;2023-03-01T16:18:08;23.43;;;13.57;;
35578;SDS011;21687;48.900;9.188;2023-03-01T16:20:37;19.93;;;12.07;;
35578;SDS011;21687;48.900;9.188;2023-03-01T16:23:04;22.67;;;13.47;;
35578;SDS011;21687;48.900;9.188;2023-03-01T16:25:32;20.87;;;13.70;;
35578;SDS011;21687;48.900;9.188;2023-03-01T16:27:59;19.63;;;12.23;;
35578;SDS011;21687;48.900;9.188;2023-03-01T16:30:29;19.40;;;12.80;;
35578;SDS011;21687;48.900;9.188;2023-03-01T16:32:56;18.87;;;12.50;;
35578;SDS011;21687;48.900;9.188;2023-03-01T16:35:23;21.97;;;13.00;;